Time;durP1;ratioP1;P1;durP2;ratioP2;P2;SDS_P1;SDS_P2;PMS_P1;PMS_P2;Temp;Humidity;BMP_temperature;BMP_pressure;BME280_temperature;BME280_humidity;BME280_pressure;Samples;Min_cycle;Max_cycle;Signal;HPM_P1;HPM_P2
2023/07/18 00:01:56;;;;;;;;;;;25.80;45.10;;;;;;1546500;75;802;-49
2023/07/18 00:03:56;;;;;;;;;;;25.80;45.00;;;;;;1544529;75;1914;-47
2023/07/18 00:05:58;;;;;;;;;;;25.80;45.10;;;;;;1541135;75;1542;-49
2023/07/18 00:08:00;;;;;;;;;;;25.80;45.10;;;;;;1553123;75;785;-49
2023/07/18 00:10:02;;;;;;;;;;;25.70;45.20;;;;;;1534039;75;1177;-48
2023/07/18 00:12:05;;;;;;;;;;;25.80;45.20;;;;;;1544125;75;741;-49
2023/07/18 00:14:08;;;;;;;;;;;25.80;45.20;;;;;;1542443;75;769;-49
2023/07/18 00:16:09;;;;;;;;;;;25.70;45.30;;;;;;1548467;75;757;-49
2023/07/18 00:18:11;;;;;;;;;;;25.70;45.40;;;;;;1548412;75;752;-49
2023/07/18 00:20:14;;;;;;;;;;;25.80;45.50;;;;;;1548013;75;1584;-49
2023/07/18 00:22:16;;;;;;;;;;;25.80;45.50;;;;;;1558401;75;737;-49
2023/07/18 00:24:18;;;;;;;;;;;25.70;45.50;;;;;;1551198;75;1956;-47
2023/07/18 00:26:20;;;;;;;;;;;25.70;45.50;;;;;;1538449;75;1128;-48
2023/07/18 00:28:23;;;;;;;;;;;25.70;45.50;;;;;;1532471;75;614;-48
2023/07/18 00:30:26;;;;;;;;;;;25.80;45.50;;;;;;1551838;75;1146;-49
2023/07/18 00:32:28;;;;;;;;;;;25.80;45.50;;;;;;1551539;75;729;-49
2023/07/18 00:34:30;;;;;;;;;;;25.70;45.60;;;;;;1546328;75;1644;-48
2023/07/18 00:36:32;;;;;;;;;;;25.80;45.60;;;;;;1548053;75;759;-49
2023/07/18 00:38:34;;;;;;;;;;;25.80;45.70;;;;;;1559996;75;1202;-49
2023/07/18 00:40:36;;;;;;;;;;;25.80;45.60;;;;;;1553226;75;594;-48
2023/07/18 00:42:42;;;;;;;;;;;25.70;45.70;;;;;;1559087;75;1919;-49
2023/07/18 00:44:44;;;;;;;;;;;25.70;45.80;;;;;;1549533;75;971;-49
2023/07/18 00:46:46;;;;;;;;;;;25.70;45.80;;;;;;1548508;75;1557;-48
2023/07/18 00:48:48;;;;;;;;;;;25.70;45.90;;;;;;1550349;75;1188;-47
2023/07/18 00:50:49;;;;;;;;;;;25.70;45.90;;;;;;1550058;75;711;-49
2023/07/18 00:52:53;;;;;;;;;;;25.70;46.00;;;;;;1554392;75;796;-48
2023/07/18 00:54:54;;;;;;;;;;;25.70;46.00;;;;;;1544239;75;733;-48
2023/07/18 00:56:56;;;;;;;;;;;25.70;46.20;;;;;;1553299;75;739;-48
2023/07/18 00:58:58;;;;;;;;;;;25.70;46.20;;;;;;1552622;74;1119;-48
2023/07/18 01:01:00;;;;;;;;;;;25.70;46.30;;;;;;1547950;75;1529;-48
2023/07/18 01:03:02;;;;;;;;;;;25.70;46.40;;;;;;1548072;75;1933;-48
2023/07/18 01:05:04;;;;;;;;;;;25.70;46.30;;;;;;1550250;75;769;-49
2023/07/18 01:07:06;;;;;;;;;;;25.70;46.50;;;;;;1544528;75;746;-48
2023/07/18 01:09:08;;;;;;;;;;;25.70;46.50;;;;;;1548195;75;1171;-49
2023/07/18 01:11:10;;;;;;;;;;;25.70;46.50;;;;;;1546182;75;699;-49
2023/07/18 01:13:13;;;;;;;;;;;25.70;46.50;;;;;;1549571;75;662;-47
2023/07/18 01:15:14;;;;;;;;;;;25.70;46.50;;;;;;1558307;75;1489;-49
2023/07/18 01:17:17;;;;;;;;;;;25.70;46.50;;;;;;1566178;75;727;-47
2023/07/18 01:19:19;;;;;;;;;;;25.70;46.50;;;;;;1547751;75;1097;-49
2023/07/18 01:21:21;;;;;;;;;;;25.70;46.50;;;;;;1551441;75;773;-48
2023/07/18 01:23:24;;;;;;;;;;;25.70;46.60;;;;;;1549421;75;1957;-49
2023/07/18 01:25:26;;;;;;;;;;;25.70;46.70;;;;;;1552697;75;767;-49
2023/07/18 01:27:30;;;;;;;;;;;25.70;46.70;;;;;;1549421;75;803;-49
2023/07/18 01:29:32;;;;;;;;;;;25.70;46.70;;;;;;1553551;75;1569;-49
2023/07/18 01:31:34;;;;;;;;;;;25.70;46.60;;;;;;1541378;75;726;-49
2023/07/18 01:33:36;;;;;;;;;;;25.70;46.70;;;;;;1564161;75;736;-48
2023/07/18 01:35:38;;;;;;;;;;;25.60;46.70;;;;;;1556533;75;729;-49
2023/07/18 01:37:40;;;;;;;;;;;25.70;46.60;;;;;;1559460;75;665;-49
2023/07/18 01:39:43;;;;;;;;;;;25.70;46.70;;;;;;1551647;75;1141;-49
2023/07/18 01:41:45;;;;;;;;;;;25.60;46.60;;;;;;1547814;75;754;-49
2023/07/18 01:43:47;;;;;;;;;;;25.70;46.60;;;;;;1548120;75;1935;-49
2023/07/18 01:45:49;;;;;;;;;;;25.60;46.60;;;;;;1551967;75;793;-48
2023/07/18 01:47:51;;;;;;;;;;;25.70;46.60;;;;;;1551960;75;716;-48
2023/07/18 01:49:53;;;;;;;;;;;25.60;46.60;;;;;;1547482;75;1200;-49
2023/07/18 01:51:55;;;;;;;;;;;25.60;46.60;;;;;;1549187;75;750;-49
2023/07/18 01:53:57;;;;;;;;;;;25.60;46.70;;;;;;1548658;75;828;-49
2023/07/18 01:55:59;;;;;;;;;;;25.60;46.80;;;;;;1538880;75;750;-49
2023/07/18 01:58:00;;;;;;;;;;;25.60;46.80;;;;;;1546212;75;1527;-49
2023/07/18 02:00:03;;;;;;;;;;;25.60;46.70;;;;;;1530286;75;1143;-49
2023/07/18 02:02:06;;;;;;;;;;;25.60;46.60;;;;;;1545570;75;770;-49
2023/07/18 02:04:08;;;;;;;;;;;25.60;46.60;;;;;;1552014;75;1914;-48
2023/07/18 02:06:10;;;;;;;;;;;25.60;46.60;;;;;;1553246;75;796;-48
2023/07/18 02:08:12;;;;;;;;;;;25.50;46.60;;;;;;1535335;75;726;-49
2023/07/18 02:10:16;;;;;;;;;;;25.60;46.60;;;;;;1555492;75;1158;-49
2023/07/18 02:12:19;;;;;;;;;;;25.50;46.50;;;;;;1546654;75;1805;-49
2023/07/18 02:14:21;;;;;;;;;;;25.50;46.60;;;;;;1550977;75;743;-49
2023/07/18 02:16:23;;;;;;;;;;;25.50;46.60;;;;;;1559519;75;693;-47
2023/07/18 02:18:25;;;;;;;;;;;25.50;46.50;;;;;;1551790;75;713;-49
2023/07/18 02:20:27;;;;;;;;;;;25.50;46.50;;;;;;1558975;75;1120;-49
2023/07/18 02:22:29;;;;;;;;;;;25.50;46.40;;;;;;1563578;75;755;-48
2023/07/18 02:24:31;;;;;;;;;;;25.50;46.50;;;;;;1551491;75;1954;-48
2023/07/18 02:26:32;;;;;;;;;;;25.50;46.50;;;;;;1555207;75;1538;-49
2023/07/18 02:28:34;;;;;;;;;;;25.50;46.50;;;;;;1552352;75;1095;-49
2023/07/18 02:30:36;;;;;;;;;;;25.50;46.60;;;;;;1548327;75;789;-49
2023/07/18 02:32:39;;;;;;;;;;;25.50;46.60;;;;;;1548268;75;747;-47
2023/07/18 02:34:41;;;;;;;;;;;25.50;46.60;;;;;;1546590;75;718;-49
2023/07/18 02:36:43;;;;;;;;;;;25.50;46.60;;;;;;1549411;75;776;-49
2023/07/18 02:38:45;;;;;;;;;;;25.50;46.40;;;;;;1551019;75;1164;-50
2023/07/18 02:40:47;;;;;;;;;;;25.50;46.30;;;;;;1550864;75;1558;-49
2023/07/18 02:42:49;;;;;;;;;;;25.50;46.30;;;;;;1549814;75;675;-50
2023/07/18 02:44:51;;;;;;;;;;;25.50;46.20;;;;;;1555890;75;1934;-48
2023/07/18 02:46:53;;;;;;;;;;;25.50;46.20;;;;;;1558692;75;734;-49
2023/07/18 02:48:55;;;;;;;;;;;25.50;46.20;;;;;;1547527;75;1174;-49
2023/07/18 02:50:57;;;;;;;;;;;25.50;46.20;;;;;;1522296;75;728;-49
2023/07/18 02:52:59;;;;;;;;;;;25.40;46.20;;;;;;1547949;75;720;-49
2023/07/18 02:55:01;;;;;;;;;;;25.50;46.20;;;;;;1546438;75;1548;-49
2023/07/18 02:57:02;;;;;;;;;;;25.50;46.20;;;;;;1543559;75;951;-49
2023/07/18 02:59:04;;;;;;;;;;;25.50;46.10;;;;;;1553020;74;1154;-48
2023/07/18 03:01:07;;;;;;;;;;;25.40;46.00;;;;;;1551873;75;739;-49
2023/07/18 03:03:09;;;;;;;;;;;25.50;46.00;;;;;;1548649;75;723;-49
2023/07/18 03:05:11;;;;;;;;;;;25.50;46.00;;;;;;1557677;75;1931;-48
2023/07/18 03:07:13;;;;;;;;;;;25.50;45.90;;;;;;1530164;75;771;-49
2023/07/18 03:09:19;;;;;;;;;;;25.50;45.90;;;;;;1555147;74;1410;-49
2023/07/18 03:11:21;;;;;;;;;;;25.50;45.90;;;;;;1545246;75;701;-49
2023/07/18 03:13:24;;;;;;;;;;;25.50;45.90;;;;;;1554726;75;757;-49
2023/07/18 03:15:26;;;;;;;;;;;25.40;45.90;;;;;;1556125;75;1041;-48
2023/07/18 03:17:28;;;;;;;;;;;25.40;45.90;;;;;;1549910;75;790;-49
2023/07/18 03:19:31;;;;;;;;;;;25.30;45.90;;;;;;1558801;75;1092;-48
2023/07/18 03:21:33;;;;;;;;;;;25.40;46.00;;;;;;1552109;75;1550;-49
2023/07/18 03:23:35;;;;;;;;;;;25.40;45.90;;;;;;1545282;75;1932;-49
2023/07/18 03:25:37;;;;;;;;;;;25.40;45.70;;;;;;1539139;75;801;-49
2023/07/18 03:27:39;;;;;;;;;;;25.40;45.70;;;;;;1545894;75;793;-49
2023/07/18 03:29:42;;;;;;;;;;;25.40;45.60;;;;;;1546014;75;1137;-49
2023/07/18 03:31:43;;;;;;;;;;;25.40;45.60;;;;;;1545077;75;757;-49
2023/07/18 03:33:45;;;;;;;;;;;25.30;45.40;;;;;;1552493;75;779;-49
2023/07/18 03:35:47;;;;;;;;;;;25.30;45.30;;;;;;1550174;75;1307;-49
2023/07/18 03:37:49;;;;;;;;;;;25.40;45.20;;;;;;1550657;75;739;-48
2023/07/18 03:39:51;;;;;;;;;;;25.30;45.20;;;;;;1546025;75;1123;-47
2023/07/18 03:41:53;;;;;;;;;;;25.30;45.20;;;;;;1548685;75;943;-48
2023/07/18 03:43:55;;;;;;;;;;;25.30;45.20;;;;;;1548010;75;1931;-49
2023/07/18 03:45:57;;;;;;;;;;;25.30;45.20;;;;;;1545711;75;746;-49
2023/07/18 03:47:59;;;;;;;;;;;25.30;45.20;;;;;;1545339;75;739;-49
2023/07/18 03:50:01;;;;;;;;;;;25.30;45.10;;;;;;1545543;75;1470;-49
2023/07/18 03:52:03;;;;;;;;;;;25.30;45.10;;;;;;1545035;75;729;-49
2023/07/18 03:54:05;;;;;;;;;;;25.30;45.00;;;;;;1537365;75;724;-49
2023/07/18 03:56:07;;;;;;;;;;;25.30;45.00;;;;;;1543156;75;855;-49
2023/07/18 03:58:09;;;;;;;;;;;25.30;45.10;;;;;;1534782;75;693;-48
2023/07/18 04:00:16;;;;;;;;;;;25.30;45.10;;;;;;1535043;75;1131;-49
2023/07/18 04:02:17;;;;;;;;;;;25.30;45.10;;;;;;1552165;75;1531;-48
2023/07/18 04:04:19;;;;;;;;;;;25.30;45.00;;;;;;1551788;75;1943;-49
2023/07/18 04:06:21;;;;;;;;;;;25.30;45.10;;;;;;1556997;75;787;-47
2023/07/18 04:08:23;;;;;;;;;;;25.30;45.10;;;;;;1546310;75;740;-49
2023/07/18 04:10:25;;;;;;;;;;;25.30;45.10;;;;;;1554545;75;1148;-49
2023/07/18 04:12:27;;;;;;;;;;;25.30;44.90;;;;;;1538185;75;799;-50
2023/07/18 04:14:29;;;;;;;;;;;25.30;45.00;;;;;;1556533;75;745;-49
2023/07/18 04:16:31;;;;;;;;;;;25.20;45.00;;;;;;1562794;75;731;-49
2023/07/18 04:18:33;;;;;;;;;;;25.20;45.00;;;;;;1549296;75;1552;-49
2023/07/18 04:20:34;;;;;;;;;;;25.20;45.10;;;;;;1548229;75;853;-48
2023/07/18 04:22:36;;;;;;;;;;;25.20;45.00;;;;;;1561103;75;754;-49
2023/07/18 04:24:38;;;;;;;;;;;25.20;45.10;;;;;;1548445;75;1925;-49
2023/07/18 04:26:40;;;;;;;;;;;25.20;45.20;;;;;;1559383;75;796;-49
2023/07/18 04:28:42;;;;;;;;;;;25.30;45.10;;;;;;1562501;75;1155;-49
2023/07/18 04:30:44;;;;;;;;;;;25.20;45.20;;;;;;1550498;75;762;-48
2023/07/18 04:32:46;;;;;;;;;;;25.20;45.20;;;;;;1544462;75;1544;-48
2023/07/18 04:34:48;;;;;;;;;;;25.30;45.30;;;;;;1562270;75;749;-48
2023/07/18 04:36:50;;;;;;;;;;;25.20;45.30;;;;;;1546352;75;810;-49
2023/07/18 04:38:52;;;;;;;;;;;25.20;45.20;;;;;;1565240;75;1083;-49
2023/07/18 04:40:54;;;;;;;;;;;25.20;45.20;;;;;;1558340;75;762;-47
2023/07/18 04:42:56;;;;;;;;;;;25.20;45.20;;;;;;1555289;75;1112;-48
2023/07/18 04:44:58;;;;;;;;;;;25.20;45.50;;;;;;1557355;74;1931;-49
2023/07/18 04:47:00;;;;;;;;;;;25.20;45.60;;;;;;1557893;74;1536;-49
2023/07/18 04:49:01;;;;;;;;;;;25.30;45.60;;;;;;1565445;75;1188;-50
2023/07/18 04:51:03;;;;;;;;;;;25.20;45.70;;;;;;1562410;75;706;-49
2023/07/18 04:53:05;;;;;;;;;;;25.20;45.60;;;;;;1563866;75;775;-49
2023/07/18 04:55:08;;;;;;;;;;;25.20;45.60;;;;;;1560482;75;727;-49
2023/07/18 04:57:10;;;;;;;;;;;25.20;45.70;;;;;;1559652;75;697;-49
2023/07/18 04:59:12;;;;;;;;;;;25.30;45.70;;;;;;1564652;75;1142;-49
2023/07/18 05:01:14;;;;;;;;;;;25.30;45.70;;;;;;1557223;75;1501;-49
2023/07/18 05:03:16;;;;;;;;;;;25.30;45.90;;;;;;1559590;74;762;-49
2023/07/18 05:05:18;;;;;;;;;;;25.20;46.00;;;;;;1544357;75;1944;-49
2023/07/18 05:07:20;;;;;;;;;;;25.30;46.30;;;;;;1556911;75;795;-49
2023/07/18 05:09:22;;;;;;;;;;;25.30;46.30;;;;;;1565689;75;1112;-50
2023/07/18 05:11:23;;;;;;;;;;;25.30;46.40;;;;;;1553660;75;741;-50
2023/07/18 05:13:25;;;;;;;;;;;25.30;46.50;;;;;;1556703;75;776;-49
2023/07/18 05:15:27;;;;;;;;;;;25.30;46.30;;;;;;1553763;75;1447;-49
2023/07/18 05:17:29;;;;;;;;;;;25.30;46.20;;;;;;1555473;75;733;-49
2023/07/18 05:19:31;;;;;;;;;;;25.30;46.00;;;;;;1554077;75;1168;-48
2023/07/18 05:21:33;;;;;;;;;;;25.20;45.80;;;;;;1561105;75;724;-48
2023/07/18 05:23:36;;;;;;;;;;;25.40;45.60;;;;;;1549530;75;792;-49
2023/07/18 05:25:38;;;;;;;;;;;25.30;45.90;;;;;;1570088;74;1907;-49
2023/07/18 05:27:40;;;;;;;;;;;25.30;45.80;;;;;;1552089;74;779;-48
2023/07/18 05:29:42;;;;;;;;;;;25.40;45.60;;;;;;1557190;75;1515;-48
2023/07/18 05:31:44;;;;;;;;;;;25.30;45.40;;;;;;1557073;75;666;-49
2023/07/18 05:33:46;;;;;;;;;;;25.30;45.20;;;;;;1555315;75;636;-50
2023/07/18 05:35:48;;;;;;;;;;;25.30;44.90;;;;;;1559458;75;782;-49
2023/07/18 05:37:50;;;;;;;;;;;25.40;45.10;;;;;;1554965;75;775;-49
2023/07/18 05:39:52;;;;;;;;;;;25.30;44.90;;;;;;1555712;75;1129;-49
2023/07/18 05:41:54;;;;;;;;;;;25.40;45.40;;;;;;1559187;75;1076;-49
2023/07/18 05:43:55;;;;;;;;;;;25.40;45.50;;;;;;1565650;74;1587;-49
2023/07/18 05:45:57;;;;;;;;;;;25.50;45.60;;;;;;1562942;74;1934;-46
2023/07/18 05:47:59;;;;;;;;;;;25.50;45.20;;;;;;1567596;75;741;-49
2023/07/18 05:50:02;;;;;;;;;;;25.50;45.20;;;;;;1562485;75;1155;-50
2023/07/18 05:52:04;;;;;;;;;;;25.60;45.10;;;;;;1559033;74;728;-47
2023/07/18 05:54:06;;;;;;;;;;;25.60;44.80;;;;;;1568862;74;968;-48
2023/07/18 05:56:08;;;;;;;;;;;25.60;44.60;;;;;;1561275;75;1578;-49
2023/07/18 05:58:10;;;;;;;;;;;25.60;44.50;;;;;;1564419;74;683;-50
2023/07/18 06:00:13;;;;;;;;;;;25.50;44.10;;;;;;1561012;74;1103;-49
2023/07/18 06:02:16;;;;;;;;;;;25.50;43.90;;;;;;1565514;74;770;-50
2023/07/18 06:04:18;;;;;;;;;;;25.60;44.10;;;;;;1566104;75;655;-49
2023/07/18 06:06:20;;;;;;;;;;;25.60;43.30;;;;;;1570792;74;1946;-49
2023/07/18 06:08:22;;;;;;;;;;;25.50;43.50;;;;;;1559186;74;678;-49
2023/07/18 06:10:24;;;;;;;;;;;25.50;43.50;;;;;;1560580;74;1585;-49
2023/07/18 06:12:26;;;;;;;;;;;25.50;43.20;;;;;;1561786;75;763;-49
2023/07/18 06:14:28;;;;;;;;;;;25.60;43.20;;;;;;1560426;75;849;-49
2023/07/18 06:16:29;;;;;;;;;;;25.50;43.10;;;;;;1563927;75;777;-49
2023/07/18 06:18:31;;;;;;;;;;;25.50;42.40;;;;;;1562214;74;1183;-49
2023/07/18 06:20:33;;;;;;;;;;;25.50;42.40;;;;;;1564825;74;685;-48
2023/07/18 06:22:35;;;;;;;;;;;25.50;42.60;;;;;;1563201;75;721;-49
2023/07/18 06:24:37;;;;;;;;;;;25.60;41.60;;;;;;1563356;75;1927;-49
2023/07/18 06:26:40;;;;;;;;;;;25.50;42.10;;;;;;1572515;75;711;-49
2023/07/18 06:28:42;;;;;;;;;;;25.50;41.80;;;;;;1566429;74;1156;-49
2023/07/18 06:30:44;;;;;;;;;;;25.60;42.10;;;;;;1568232;74;759;-49
2023/07/18 06:32:46;;;;;;;;;;;25.60;42.40;;;;;;1571598;75;769;-50
2023/07/18 06:34:48;;;;;;;;;;;25.60;42.70;;;;;;1561352;75;683;-49
2023/07/18 06:36:50;;;;;;;;;;;25.60;41.80;;;;;;1562776;74;803;-48
2023/07/18 06:38:52;;;;;;;;;;;25.60;41.90;;;;;;1555395;74;1783;-49
2023/07/18 06:40:55;;;;;;;;;;;25.60;42.10;;;;;;1565260;74;740;-49
2023/07/18 06:42:57;;;;;;;;;;;25.60;42.90;;;;;;1565582;74;1148;-49
2023/07/18 06:44:59;;;;;;;;;;;25.60;42.60;;;;;;1562845;75;1907;-48
2023/07/18 06:47:01;;;;;;;;;;;25.70;42.00;;;;;;1555762;74;751;-49
2023/07/18 06:49:02;;;;;;;;;;;25.70;41.90;;;;;;1557633;75;1185;-47
2023/07/18 06:51:06;;;;;;;;;;;25.70;42.00;;;;;;1563979;75;769;-48
2023/07/18 06:53:08;;;;;;;;;;;25.70;41.70;;;;;;1564229;74;1335;-49
2023/07/18 06:55:10;;;;;;;;;;;25.80;40.50;;;;;;1565430;75;749;-49
2023/07/18 06:57:15;;;;;;;;;;;25.70;40.50;;;;;;1562758;74;736;-49
2023/07/18 06:59:15;;;;;;;;;;;25.70;40.90;;;;;;1555190;75;1629;-46
2023/07/18 07:01:17;;;;;;;;;;;25.70;41.50;;;;;;1563657;75;745;-48
2023/07/18 07:03:19;;;;;;;;;;;25.70;40.30;;;;;;1562991;74;694;-49
2023/07/18 07:05:21;;;;;;;;;;;25.70;41.20;;;;;;1562468;75;1922;-49
2023/07/18 07:07:23;;;;;;;;;;;25.70;40.90;;;;;;1560891;74;1509;-48
2023/07/18 07:09:25;;;;;;;;;;;25.70;41.00;;;;;;1559089;75;1114;-49
2023/07/18 07:11:27;;;;;;;;;;;25.70;39.20;;;;;;1555481;74;736;-49
2023/07/18 07:13:29;;;;;;;;;;;25.60;39.50;;;;;;1559206;75;771;-49
2023/07/18 07:15:32;;;;;;;;;;;25.70;39.70;;;;;;1569090;75;770;-49
2023/07/18 07:17:34;;;;;;;;;;;25.70;39.40;;;;;;1560555;74;681;-49
2023/07/18 07:19:36;;;;;;;;;;;25.80;39.20;;;;;;1561466;74;1119;-49
2023/07/18 07:21:38;;;;;;;;;;;25.80;39.60;;;;;;1564294;75;1583;-49
2023/07/18 07:23:40;;;;;;;;;;;25.70;39.70;;;;;;1564557;74;783;-49
2023/07/18 07:25:43;;;;;;;;;;;25.80;39.20;;;;;;1565708;75;1923;-49
2023/07/18 07:27:46;;;;;;;;;;;25.80;39.10;;;;;;1562879;74;636;-48
2023/07/18 07:29:48;;;;;;;;;;;25.70;38.60;;;;;;1564236;75;1145;-48
2023/07/18 07:31:49;;;;;;;;;;;25.80;38.30;;;;;;1562699;74;742;-49
2023/07/18 07:33:51;;;;;;;;;;;25.80;38.10;;;;;;1556555;74;710;-49
2023/07/18 07:35:53;;;;;;;;;;;25.80;38.60;;;;;;1557189;75;1346;-48
2023/07/18 07:37:55;;;;;;;;;;;25.80;39.00;;;;;;1561868;75;755;-49
2023/07/18 07:39:57;;;;;;;;;;;25.80;39.00;;;;;;1556637;75;1130;-49
2023/07/18 07:41:59;;;;;;;;;;;25.80;39.40;;;;;;1555353;74;775;-49
2023/07/18 07:44:01;;;;;;;;;;;25.80;39.40;;;;;;1552931;75;1093;-48
2023/07/18 07:46:03;;;;;;;;;;;25.80;39.60;;;;;;1569141;75;1940;-48
2023/07/18 07:48:05;;;;;;;;;;;25.80;39.30;;;;;;1560357;75;822;-49
2023/07/18 07:50:08;;;;;;;;;;;25.90;39.70;;;;;;1557917;75;1638;-49
2023/07/18 07:52:10;;;;;;;;;;;25.80;39.30;;;;;;1558914;75;757;-49
2023/07/18 07:54:12;;;;;;;;;;;25.90;38.90;;;;;;1562079;75;795;-49
2023/07/18 07:56:14;;;;;;;;;;;25.90;39.70;;;;;;1557647;75;682;-49
2023/07/18 07:58:16;;;;;;;;;;;25.90;39.30;;;;;;1552481;75;862;-50
2023/07/18 08:00:19;;;;;;;;;;;25.90;38.90;;;;;;1560919;75;1102;-49
2023/07/18 08:02:21;;;;;;;;;;;25.90;39.60;;;;;;1566052;75;784;-49
2023/07/18 08:04:23;;;;;;;;;;;25.90;39.50;;;;;;1557476;75;1524;-50
2023/07/18 08:06:25;;;;;;;;;;;25.90;39.10;;;;;;1547411;75;1946;-49
2023/07/18 08:08:26;;;;;;;;;;;25.90;38.80;;;;;;1558370;75;715;-47
2023/07/18 08:10:28;;;;;;;;;;;25.90;38.70;;;;;;1548261;75;1110;-49
2023/07/18 08:12:30;;;;;;;;;;;25.90;39.00;;;;;;1558400;75;780;-49
2023/07/18 08:14:32;;;;;;;;;;;25.90;38.90;;;;;;1548688;75;729;-48
2023/07/18 08:16:34;;;;;;;;;;;25.90;38.80;;;;;;1561484;75;714;-50
2023/07/18 08:18:36;;;;;;;;;;;25.90;39.10;;;;;;1559622;74;1486;-49
2023/07/18 08:20:38;;;;;;;;;;;26.00;39.70;;;;;;1562549;75;700;-49
2023/07/18 08:22:40;;;;;;;;;;;25.90;39.90;;;;;;1556943;75;838;-49
2023/07/18 08:24:42;;;;;;;;;;;26.00;40.10;;;;;;1556265;75;794;-49
2023/07/18 08:26:44;;;;;;;;;;;25.90;39.70;;;;;;1554578;75;1921;-49
2023/07/18 08:28:47;;;;;;;;;;;25.90;39.30;;;;;;1557483;75;1149;-49
2023/07/18 08:30:48;;;;;;;;;;;26.00;40.00;;;;;;1564326;74;1553;-49
2023/07/18 08:32:50;;;;;;;;;;;25.90;39.40;;;;;;1571089;75;733;-48
2023/07/18 08:34:52;;;;;;;;;;;25.90;39.70;;;;;;1551650;74;910;-49
2023/07/18 08:36:54;;;;;;;;;;;25.90;39.70;;;;;;1555697;75;789;-49
2023/07/18 08:38:56;;;;;;;;;;;26.00;40.20;;;;;;1553536;75;1143;-48
2023/07/18 08:40:58;;;;;;;;;;;25.90;39.30;;;;;;1543788;75;736;-50
2023/07/18 08:43:00;;;;;;;;;;;26.00;39.80;;;;;;1563063;75;714;-49
2023/07/18 08:45:03;;;;;;;;;;;25.90;39.40;;;;;;1558145;75;1512;-49
2023/07/18 08:47:05;;;;;;;;;;;26.00;40.10;;;;;;1544561;75;1924;-48
2023/07/18 08:49:07;;;;;;;;;;;26.00;39.50;;;;;;1551496;75;1177;-48
2023/07/18 08:51:09;;;;;;;;;;;26.00;39.70;;;;;;1551625;75;822;-49
2023/07/18 08:53:11;;;;;;;;;;;26.00;40.00;;;;;;1545364;75;817;-49
2023/07/18 08:55:13;;;;;;;;;;;26.00;39.70;;;;;;1549545;75;747;-48
2023/07/18 08:57:15;;;;;;;;;;;26.00;39.90;;;;;;1554486;75;715;-49
2023/07/18 08:59:18;;;;;;;;;;;26.00;40.00;;;;;;1550173;75;1461;-49
2023/07/18 09:01:20;;;;;;;;;;;26.00;40.30;;;;;;1550905;75;850;-48
2023/07/18 09:03:22;;;;;;;;;;;26.00;40.70;;;;;;1553459;75;793;-48
2023/07/18 09:05:34;;;;;;;;;;;26.00;40.40;;;;;;1546797;75;734;-49
2023/07/18 09:07:36;;;;;;;;;;;26.10;40.40;;;;;;1544857;75;717;-48
2023/07/18 09:09:40;;;;;;;;;;;26.00;40.40;;;;;;1549167;75;1116;-49
2023/07/18 09:11:44;;;;;;;;;;;26.10;40.50;;;;;;1567025;74;938;-48
2023/07/18 09:13:46;;;;;;;;;;;26.10;40.70;;;;;;1546998;75;1918;-48
2023/07/18 09:15:48;;;;;;;;;;;26.10;40.70;;;;;;1557451;75;681;-49
2023/07/18 09:17:56;;;;;;;;;;;26.10;40.80;;;;;;1543609;75;699;-49
2023/07/18 09:19:58;;;;;;;;;;;26.10;40.50;;;;;;1540771;75;1194;-49
2023/07/18 09:22:00;;;;;;;;;;;26.10;40.30;;;;;;1530197;76;763;-49
2023/07/18 09:24:02;;;;;;;;;;;26.10;41.00;;;;;;1556538;75;762;-47
2023/07/18 09:26:06;;;;;;;;;;;26.10;40.70;;;;;;1528167;76;1945;-49
2023/07/18 09:28:11;;;;;;;;;;;26.00;40.90;;;;;;1541331;75;1801;-49
2023/07/18 09:31:17;;;;;;;;;;;26.10;41.00;;;;;;1606318;72;654;-48
2023/07/18 09:33:21;;;;;;;;;;;26.00;41.50;;;;;;1572839;73;715;-47
2023/07/18 09:35:25;;;;;;;;;;;26.10;41.50;;;;;;1583286;73;1963;-48
2023/07/18 09:37:27;;;;;;;;;;;26.10;41.60;;;;;;1571962;73;2328;-47
2023/07/18 09:39:29;;;;;;;;;;;26.10;41.70;;;;;;1570836;73;1189;-47
2023/07/18 09:41:31;;;;;;;;;;;26.10;41.80;;;;;;1557270;75;1532;-48
2023/07/18 09:43:33;;;;;;;;;;;26.10;41.90;;;;;;1547364;75;736;-48
2023/07/18 09:45:35;;;;;;;;;;;26.10;41.80;;;;;;1541781;74;716;-48
2023/07/18 09:47:38;;;;;;;;;;;26.10;41.60;;;;;;1547466;75;722;-48
2023/07/18 09:49:40;;;;;;;;;;;26.20;41.80;;;;;;1550732;75;1936;-47
2023/07/18 09:51:42;;;;;;;;;;;26.20;41.80;;;;;;1570517;75;787;-47
2023/07/18 09:53:45;;;;;;;;;;;26.20;41.70;;;;;;1547514;75;812;-47
2023/07/18 09:55:47;;;;;;;;;;;26.10;41.90;;;;;;1560778;75;1550;-47
2023/07/18 09:57:49;;;;;;;;;;;26.20;42.00;;;;;;1555923;75;668;-47
2023/07/18 09:59:51;;;;;;;;;;;26.00;42.00;;;;;;1563102;75;1182;-46
2023/07/18 10:01:54;;;;;;;;;;;26.10;41.60;;;;;;1549217;75;778;-48
2023/07/18 10:03:56;;;;;;;;;;;26.10;41.70;;;;;;1563662;75;791;-47
2023/07/18 10:05:57;;;;;;;;;;;26.10;41.70;;;;;;1551835;75;738;-48
2023/07/18 10:07:59;;;;;;;;;;;26.20;42.00;;;;;;1558692;75;776;-48
2023/07/18 10:10:01;;;;;;;;;;;26.20;42.00;;;;;;1548207;75;1952;-48
2023/07/18 10:12:05;;;;;;;;;;;26.10;42.00;;;;;;1551395;75;755;-48
2023/07/18 10:14:08;;;;;;;;;;;26.10;42.10;;;;;;1559008;75;792;-48
2023/07/18 10:16:15;;;;;;;;;;;26.00;42.10;;;;;;1553626;75;776;-47
2023/07/18 10:18:17;;;;;;;;;;;26.10;42.10;;;;;;1553048;75;705;-47
2023/07/18 10:20:20;;;;;;;;;;;26.20;42.10;;;;;;1549243;75;1121;-46
2023/07/18 10:22:27;;;;;;;;;;;26.20;42.00;;;;;;1544511;75;695;-48
2023/07/18 10:24:31;;;;;;;;;;;26.10;42.10;;;;;;1564613;74;1862;-48
2023/07/18 10:26:32;;;;;;;;;;;26.20;42.10;;;;;;1557911;75;1129;-48
2023/07/18 10:28:44;;;;;;;;;;;26.10;41.90;;;;;;1542320;74;1158;-47
2023/07/18 10:30:46;;;;;;;;;;;26.10;42.10;;;;;;1543776;75;1940;-47
2023/07/18 10:32:52;;;;;;;;;;;26.10;42.00;;;;;;1532035;75;725;-48
2023/07/18 10:34:53;;;;;;;;;;;26.20;42.00;;;;;;1552062;75;738;-47
2023/07/18 10:36:56;;;;;;;;;;;26.20;42.00;;;;;;1534547;75;669;-47
2023/07/18 10:38:58;;;;;;;;;;;26.10;42.10;;;;;;1546347;75;1562;-48
2023/07/18 10:41:00;;;;;;;;;;;26.10;42.20;;;;;;1549184;75;765;-48
2023/07/18 10:43:02;;;;;;;;;;;26.10;42.30;;;;;;1540749;75;755;-47
2023/07/18 10:45:07;;;;;;;;;;;26.10;42.40;;;;;;1540410;75;741;-48
2023/07/18 10:47:14;;;;;;;;;;;26.10;42.40;;;;;;1542036;75;888;-47
2023/07/18 10:49:15;;;;;;;;;;;26.20;42.50;;;;;;1545540;75;1846;-48
2023/07/18 10:51:17;;;;;;;;;;;26.20;42.50;;;;;;1547503;75;1924;-47
2023/07/18 10:53:20;;;;;;;;;;;26.10;42.50;;;;;;1545053;75;1640;-48
2023/07/18 10:55:22;;;;;;;;;;;26.20;42.40;;;;;;1549846;75;781;-47
2023/07/18 10:57:33;;;;;;;;;;;26.20;42.30;;;;;;1538300;75;759;-47
2023/07/18 10:59:36;;;;;;;;;;;26.10;42.30;;;;;;1548018;75;1138;-48
2023/07/18 11:01:40;;;;;;;;;;;26.20;42.40;;;;;;1537828;75;735;-47
2023/07/18 11:03:45;;;;;;;;;;;26.10;42.60;;;;;;1530958;75;797;-48
2023/07/18 11:05:49;;;;;;;;;;;26.20;42.60;;;;;;1534688;75;1498;-47
2023/07/18 11:07:51;;;;;;;;;;;26.20;42.70;;;;;;1540653;75;739;-48
2023/07/18 11:09:54;;;;;;;;;;;26.20;42.30;;;;;;1543596;75;1940;-48
2023/07/18 11:11:56;;;;;;;;;;;26.20;42.30;;;;;;1535675;75;680;-46
2023/07/18 11:13:59;;;;;;;;;;;26.20;42.30;;;;;;1548470;75;768;-47
2023/07/18 11:16:07;;;;;;;;;;;26.20;42.50;;;;;;1535131;75;765;-48
2023/07/18 11:18:09;;;;;;;;;;;26.20;42.60;;;;;;1552767;75;729;-48
2023/07/18 11:20:11;;;;;;;;;;;26.20;43.10;;;;;;1544542;75;1555;-48
2023/07/18 11:22:14;;;;;;;;;;;26.20;43.00;;;;;;1539182;75;723;-49
2023/07/18 11:24:15;;;;;;;;;;;26.20;43.00;;;;;;1544972;75;741;-48
2023/07/18 11:26:18;;;;;;;;;;;26.10;42.90;;;;;;1545094;75;788;-48
2023/07/18 11:28:20;;;;;;;;;;;26.20;42.90;;;;;;1538101;75;717;-49
2023/07/18 11:30:22;;;;;;;;;;;26.20;43.00;;;;;;1546477;75;1943;-48
2023/07/18 11:32:30;;;;;;;;;;;26.10;43.10;;;;;;1560955;75;799;-49
2023/07/18 11:34:32;;;;;;;;;;;26.20;43.10;;;;;;1546164;75;1199;-47
2023/07/18 11:36:39;;;;;;;;;;;26.20;43.20;;;;;;1537361;75;789;-47
2023/07/18 11:38:40;;;;;;;;;;;26.20;43.30;;;;;;1548532;75;1981;-48
2023/07/18 11:40:42;;;;;;;;;;;26.20;43.30;;;;;;1542863;75;705;-47
2023/07/18 11:42:47;;;;;;;;;;;26.10;43.60;;;;;;1543803;75;681;-47
2023/07/18 11:44:49;;;;;;;;;;;26.10;43.40;;;;;;1540499;75;729;-47
2023/07/18 11:46:52;;;;;;;;;;;26.10;43.20;;;;;;1521342;76;1144;-47
2023/07/18 11:48:54;;;;;;;;;;;26.10;43.20;;;;;;1546815;75;1503;-47
2023/07/18 11:50:56;;;;;;;;;;;26.20;43.40;;;;;;1527911;75;1955;-47
2023/07/18 11:52:58;;;;;;;;;;;26.10;43.40;;;;;;1542863;75;676;-47
2023/07/18 11:55:00;;;;;;;;;;;26.10;43.50;;;;;;1549301;75;1020;-47
2023/07/18 11:57:06;;;;;;;;;;;26.20;43.60;;;;;;1546091;75;781;-47
2023/07/18 11:59:05;;;;;;;;;;;26.10;43.80;;;;;;1532800;75;1292;-47
2023/07/18 12:01:07;;;;;;;;;;;26.10;44.00;;;;;;1539474;75;788;-46
2023/07/18 12:03:09;;;;;;;;;;;26.10;44.00;;;;;;1544394;75;1211;-47
2023/07/18 12:05:11;;;;;;;;;;;26.10;44.00;;;;;;1537080;75;764;-47
2023/07/18 12:07:13;;;;;;;;;;;26.20;44.00;;;;;;1546250;75;815;-48
2023/07/18 12:09:15;;;;;;;;;;;26.10;43.90;;;;;;1542957;75;1136;-48
2023/07/18 12:11:17;;;;;;;;;;;26.10;43.90;;;;;;1533389;75;1955;-47